KGKJ

Port Meadville Airport

Meadville, Pennsylvania, USA
METAR KGKJ 151253Z AUTO 20003KT 10SM BKN023 M12/M13 A2993 RMK AO2 SLP160 T11171128
Observed Flight Rules
Dec-15 @ 12:53 UTC (an hour ago) Marginal Visual Flight Rules
Wind Visibility Clouds
200° at 3 knots 10 miles
  • Broken at 2,300' AGL
Temperatures Readings
Current -12°C / 10°F
Dewpoint -13°C / 9°F
Humidity 92%
Altimeter 29.93" Hg
Pressure 1016 hPa
Elevation 428
METAR KGKJ 151253Z AUTO 20003KT 10SM BKN023 M12/M13 A2993 RMK AO2 SLP160 T11171128
Observed Flight Rules
Dec-15 @ 12:53 UTC
(an hour ago)
MVFR
Wind Visibility
200° at 3 knots 10 miles
Clouds
  • Broken at 2,300' AGL
Temperature Dewpoint
-12°C / 10°F -13°C / 9°F
Humidity Altimeter Pressure
92% 29.93" Hg 1016 hPa